Time,TemperatureF,DewpointF,PressureIn,WindDirection,WindDirectionDegrees,WindSpeedMPH,WindSpeedGustMPH,Humidity,HourlyPrecipIn,Conditions,Clouds,dailyrainin,SoftwareType,DateUTC
2013-01-25 00:00:00,1.9,-13.3,30.32,NNE,26,5.0,8.0,48,0.00,CLR,CLR,0.00,WeatherDisplay:10.34,2013-01-25 05:00:00,
2013-01-25 00:01:00,2.1,-13.1,30.32,NNW,344,5.0,9.0,48,0.00,CLR,CLR,0.00,WeatherDisplay:10.34,2013-01-25 05:01:00,
2013-01-25 00:04:00,2.1,-13.1,30.32,NW,324,0.0,6.0,48,0.04,CLR,CLR,0.04,WeatherDisplay:10.34,2013-01-25 05:04:00,
2013-01-25 00:08:00,2.1,-13.1,30.32,NNW,347,3.0,6.0,48,0.04,CLR,CLR,0.04,WeatherDisplay:10.34,2013-01-25 05:08:00,
2013-01-25 00:13:00,1.9,-13.3,30.32,North,351,3.0,6.0,48,0.04,CLR,CLR,0.04,WeatherDisplay:10.34,2013-01-25 05:13:00,
2013-01-25 00:18:00,1.9,-13.3,30.32,NNE,13,4.0,7.0,48,0.04,CLR,CLR,0.04,WeatherDisplay:10.34,2013-01-25 05:18:00,
2013-01-25 00:23:00,1.9,-13.3,30.32,West,263,4.0,6.0,48,0.08,RA,RA,0.08,WeatherDisplay:10.34,2013-01-25 05:23:00,
2013-01-25 00:28:00,1.9,-13.3,30.32,SW,231,3.0,5.0,48,0.08,RA,RA,0.08,WeatherDisplay:10.34,2013-01-25 05:28:00,
2013-01-25 00:33:00,1.9,-13.3,30.32,NE,38,4.0,6.0,48,0.08,CLR,CLR,0.08,WeatherDisplay:10.34,2013-01-25 05:33:00,
2013-01-25 00:38:00,2.1,-13.1,30.32,West,278,0.0,7.0,48,0.12,RA,RA,0.12,WeatherDisplay:10.34,2013-01-25 05:38:00,
2013-01-25 00:43:00,2.1,-13.1,30.32,NNE,18,3.0,8.0,48,0.12,RA,RA,0.12,WeatherDisplay:10.34,2013-01-25 05:43:00,
2013-01-25 00:48:00,2.3,-12.9,30.32,NNW,337,5.0,12.0,48,0.12,CLR,CLR,0.12,WeatherDisplay:10.34,2013-01-25 05:48:00,
2013-01-25 00:53:00,2.5,-12.8,30.32,SW,228,3.0,5.0,48,0.12,CLR,CLR,0.12,WeatherDisplay:10.34,2013-01-25 05:53:00,
2013-01-25 00:58:00,2.3,-12.9,30.32,SW,230,4.0,7.0,48,0.12,CLR,CLR,0.12,WeatherDisplay:10.34,2013-01-25 05:58:00,
2013-01-25 01:03:00,2.1,-13.1,30.32,WSW,240,6.0,9.0,48,0.08,CLR,CLR,0.12,WeatherDisplay:10.34,2013-01-25 06:03:00,
2013-01-25 01:08:00,2.1,-13.1,30.32,North,351,3.0,7.0,48,0.08,CLR,CLR,0.12,WeatherDisplay:10.34,2013-01-25 06:08:00,
2013-01-25 01:13:00,2.3,-12.9,30.32,WNW,299,8.0,14.0,48,0.08,CLR,CLR,0.12,WeatherDisplay:10.34,2013-01-25 06:13:00,
2013-01-25 01:18:00,2.5,-12.8,30.32,NW,304,5.0,10.0,48,0.08,CLR,CLR,0.12,WeatherDisplay:10.34,2013-01-25 06:18:00,
2013-01-25 01:23:00,2.5,-12.8,30.32,WSW,251,4.0,7.0,48,0.04,CLR,CLR,0.12,WeatherDisplay:10.34,2013-01-25 06:23:00,
2013-01-25 01:28:00,2.7,-12.6,30.32,NNW,340,5.0,9.0,48,0.04,CLR,CLR,0.12,WeatherDisplay:10.34,2013-01-25 06:28:00,
2013-01-25 01:33:00,2.7,-12.6,30.32,East,93,3.0,6.0,48,0.04,CLR,CLR,0.12,WeatherDisplay:10.34,2013-01-25 06:33:00,
2013-01-25 01:38:00,2.7,-12.6,30.32,NNW,337,4.0,7.0,48,0.00,CLR,CLR,0.12,WeatherDisplay:10.34,2013-01-25 06:38:00,
2013-01-25 01:43:00,2.5,-12.8,30.32,SW,234,5.0,9.0,48,0.00,CLR,CLR,0.12,WeatherDisplay:10.34,2013-01-25 06:43:00,
2013-01-25 01:48:00,2.3,-12.9,30.32,SW,215,5.0,9.0,48,0.00,CLR,CLR,0.12,WeatherDisplay:10.34,2013-01-25 06:48:00,
2013-01-25 01:53:00,2.5,-12.8,30.32,ENE,60,3.0,5.0,48,0.04,RA,RA,0.16,WeatherDisplay:10.34,2013-01-25 06:53:00,
2013-01-25 01:58:00,2.5,-12.8,30.32,West,280,5.0,7.0,48,0.04,RA,RA,0.16,WeatherDisplay:10.34,2013-01-25 06:58:00,
2013-01-25 02:03:00,2.5,-12.8,30.32,NNE,32,4.0,7.0,48,0.04,CLR,CLR,0.16,WeatherDisplay:10.34,2013-01-25 07:03:00,
2013-01-25 02:08:00,2.5,-12.8,30.32,WNW,303,4.0,9.0,48,0.04,CLR,CLR,0.16,WeatherDisplay:10.34,2013-01-25 07:08:00,
2013-01-25 02:13:00,2.5,-12.8,30.32,NW,304,5.0,9.0,48,0.04,CLR,CLR,0.16,WeatherDisplay:10.34,2013-01-25 07:13:00,
2013-01-25 02:18:00,2.5,-12.8,30.32,North,2,6.0,7.0,48,0.04,CLR,CLR,0.16,WeatherDisplay:10.34,2013-01-25 07:18:00,
2013-01-25 02:23:00,2.7,-12.6,30.32,WSW,246,5.0,10.0,48,0.04,CLR,CLR,0.16,WeatherDisplay:10.34,2013-01-25 07:23:00,
2013-01-25 02:28:00,2.5,-12.8,30.32,West,273,4.0,8.0,48,0.04,CLR,CLR,0.16,WeatherDisplay:10.34,2013-01-25 07:28:00,
2013-01-25 02:33:00,2.1,-13.1,30.35,WNW,290,5.0,7.0,48,0.04,CLR,CLR,0.16,WeatherDisplay:10.34,2013-01-25 07:33:00,
2013-01-25 02:38:00,2.3,-12.9,30.35,WNW,288,0.0,9.0,48,0.04,CLR,CLR,0.16,WeatherDisplay:10.34,2013-01-25 07:38:00,
2013-01-25 02:43:00,2.5,-12.8,30.35,SSE,156,4.0,9.0,48,0.04,CLR,CLR,0.16,WeatherDisplay:10.34,2013-01-25 07:43:00,
2013-01-25 02:48:00,2.8,-12.4,30.35,West,269,5.0,8.0,48,0.08,RA,RA,0.20,WeatherDisplay:10.34,2013-01-25 07:48:00,
2013-01-25 02:54:00,3.0,-12.3,30.35,SW,224,5.0,7.0,48,0.04,RA,RA,0.20,WeatherDisplay:10.34,2013-01-25 07:54:00,
2013-01-25 02:59:00,2.8,-12.4,30.35,NNW,346,7.0,12.0,48,0.04,CLR,CLR,0.20,WeatherDisplay:10.34,2013-01-25 07:59:00,
2013-01-25 03:04:00,2.8,-12.4,30.35,West,280,0.0,6.0,48,0.04,CLR,CLR,0.20,WeatherDisplay:10.34,2013-01-25 08:04:00,
2013-01-25 03:09:00,2.8,-12.4,30.35,NNE,12,3.0,6.0,48,0.04,CLR,CLR,0.20,WeatherDisplay:10.34,2013-01-25 08:09:00,
2013-01-25 03:14:00,3.2,-12.1,30.35,WNW,299,3.0,6.0,48,0.08,RA,RA,0.24,WeatherDisplay:10.34,2013-01-25 08:14:00,
2013-01-25 03:19:00,3.2,-12.1,30.35,West,264,3.0,8.0,48,0.08,RA,RA,0.24,WeatherDisplay:10.34,2013-01-25 08:19:00,
2013-01-25 03:24:00,3.0,-12.3,30.35,West,271,3.0,6.0,48,0.08,CLR,CLR,0.24,WeatherDisplay:10.34,2013-01-25 08:24:00,
2013-01-25 03:29:00,3.2,-12.1,30.35,North,351,3.0,12.0,48,0.08,CLR,CLR,0.24,WeatherDisplay:10.34,2013-01-25 08:29:00,
2013-01-25 03:34:00,3.6,-11.8,30.35,SW,216,5.0,6.0,48,0.08,CLR,CLR,0.24,WeatherDisplay:10.34,2013-01-25 08:34:00,
2013-01-25 03:40:00,3.7,-11.6,30.35,WNW,284,5.0,12.0,48,0.08,CLR,CLR,0.24,WeatherDisplay:10.34,2013-01-25 08:40:00,
2013-01-25 03:45:00,3.7,-11.6,30.35,North,351,6.0,14.0,48,0.08,CLR,CLR,0.24,WeatherDisplay:10.34,2013-01-25 08:45:00,
2013-01-25 03:50:00,3.7,-11.6,30.35,NNW,330,4.0,6.0,48,0.04,CLR,CLR,0.24,WeatherDisplay:10.34,2013-01-25 08:50:00,
2013-01-25 03:55:00,3.7,-11.6,30.35,WSW,248,4.0,10.0,48,0.04,CLR,CLR,0.24,WeatherDisplay:10.34,2013-01-25 08:55:00,
2013-01-25 04:00:00,3.2,-12.1,30.35,NNE,18,5.0,12.0,48,0.04,CLR,CLR,0.24,WeatherDisplay:10.34,2013-01-25 09:00:00,
2013-01-25 04:05:00,3.4,-11.9,30.35,NW,308,6.0,12.0,48,0.04,CLR,CLR,0.24,WeatherDisplay:10.34,2013-01-25 09:05:00,
2013-01-25 04:10:00,3.2,-12.1,30.35,WNW,285,6.0,9.0,48,0.04,CLR,CLR,0.24,WeatherDisplay:10.34,2013-01-25 09:10:00,
2013-01-25 04:15:00,3.2,-12.1,30.35,NNW,341,4.0,10.0,48,0.00,CLR,CLR,0.24,WeatherDisplay:10.34,2013-01-25 09:15:00,
2013-01-25 04:20:00,3.2,-12.1,30.35,North,0,7.0,15.0,48,0.00,CLR,CLR,0.24,WeatherDisplay:10.34,2013-01-25 09:20:00,
2013-01-25 04:25:00,3.4,-11.9,30.35,North,4,3.0,7.0,48,0.00,CLR,CLR,0.24,WeatherDisplay:10.34,2013-01-25 09:25:00,
2013-01-25 04:31:00,3.6,-11.8,30.35,North,0,4.0,5.0,48,0.00,CLR,CLR,0.24,WeatherDisplay:10.34,2013-01-25 09:31:00,
2013-01-25 04:36:00,3.6,-11.8,30.35,NNW,330,4.0,9.0,48,0.00,CLR,CLR,0.24,WeatherDisplay:10.34,2013-01-25 09:36:00,
2013-01-25 04:41:00,3.4,-11.9,30.35,NW,315,3.0,6.0,48,0.04,RA,RA,0.28,WeatherDisplay:10.34,2013-01-25 09:41:00,
2013-01-25 04:46:00,3.6,-11.8,30.35,WSW,246,3.0,9.0,48,0.04,RA,RA,0.28,WeatherDisplay:10.34,2013-01-25 09:46:00,
2013-01-25 04:51:00,3.2,-12.1,30.35,WSW,245,4.0,8.0,48,0.04,CLR,CLR,0.28,WeatherDisplay:10.34,2013-01-25 09:51:00,
2013-01-25 04:56:00,3.2,-12.1,30.35,West,278,3.0,7.0,48,0.04,CLR,CLR,0.28,WeatherDisplay:10.34,2013-01-25 09:56:00,
2013-01-25 05:01:00,3.2,-12.1,30.35,SW,218,3.0,7.0,48,0.04,CLR,CLR,0.28,WeatherDisplay:10.34,2013-01-25 10:01:00,
2013-01-25 05:06:00,3.4,-11.9,30.35,West,281,3.0,6.0,48,0.04,CLR,CLR,0.28,WeatherDisplay:10.34,2013-01-25 10:06:00,
2013-01-25 05:11:00,3.6,-11.8,30.35,NNW,337,4.0,5.0,48,0.04,CLR,CLR,0.28,WeatherDisplay:10.34,2013-01-25 10:11:00,
2013-01-25 05:16:00,3.7,-11.6,30.35,NNW,331,5.0,8.0,48,0.04,CLR,CLR,0.28,WeatherDisplay:10.34,2013-01-25 10:16:00,
2013-01-25 05:21:00,3.7,-11.6,30.35,NNW,341,5.0,9.0,48,0.04,CLR,CLR,0.28,WeatherDisplay:10.34,2013-01-25 10:21:00,
2013-01-25 05:26:00,3.9,-11.4,30.35,WNW,295,4.0,8.0,48,0.04,CLR,CLR,0.28,WeatherDisplay:10.34,2013-01-25 10:26:00,
2013-01-25 05:31:00,3.9,-11.4,30.35,WNW,283,3.0,3.0,48,0.04,CLR,CLR,0.28,WeatherDisplay:10.34,2013-01-25 10:31:00,
2013-01-25 05:36:00,3.7,-11.6,30.35,WSW,255,5.0,8.0,48,0.04,CLR,CLR,0.28,WeatherDisplay:10.34,2013-01-25 10:36:00,
2013-01-25 05:41:00,3.2,-12.1,30.35,WSW,252,5.0,9.0,48,0.00,CLR,CLR,0.28,WeatherDisplay:10.34,2013-01-25 10:41:00,
2013-01-25 05:46:00,3.2,-12.1,30.39,NW,316,4.0,7.0,48,0.00,CLR,CLR,0.28,WeatherDisplay:10.34,2013-01-25 10:46:00,
2013-01-25 05:51:00,3.2,-12.1,30.39,West,262,3.0,5.0,48,0.00,CLR,CLR,0.28,WeatherDisplay:10.34,2013-01-25 10:51:00,
2013-01-25 05:56:00,2.8,-12.4,30.39,WSW,254,3.0,8.0,48,0.00,CLR,CLR,0.28,WeatherDisplay:10.34,2013-01-25 10:56:00,
2013-01-25 06:01:00,2.7,-12.6,30.39,WNW,283,3.0,10.0,48,0.00,CLR,CLR,0.28,WeatherDisplay:10.34,2013-01-25 11:01:00,
2013-01-25 06:06:00,2.7,-12.6,30.39,NNW,329,3.0,8.0,48,0.00,CLR,CLR,0.28,WeatherDisplay:10.34,2013-01-25 11:06:00,
2013-01-25 06:11:00,2.5,-12.8,30.39,NW,305,3.0,5.0,48,0.00,CLR,CLR,0.28,WeatherDisplay:10.34,2013-01-25 11:11:00,
2013-01-25 06:16:00,2.3,-12.9,30.39,West,272,4.0,12.0,48,0.00,CLR,CLR,0.28,WeatherDisplay:10.34,2013-01-25 11:16:00,
2013-01-25 06:21:00,2.5,-12.8,30.39,WNW,283,5.0,6.0,48,0.00,CLR,CLR,0.28,WeatherDisplay:10.34,2013-01-25 11:21:00,
2013-01-25 06:26:00,2.5,-12.8,30.39,West,276,4.0,8.0,48,0.00,CLR,CLR,0.28,WeatherDisplay:10.34,2013-01-25 11:26:00,
2013-01-25 06:32:00,2.1,-13.1,30.39,North,351,4.0,12.0,48,0.00,CLR,CLR,0.28,WeatherDisplay:10.34,2013-01-25 11:32:00,
2013-01-25 06:37:00,1.9,-13.3,30.39,West,277,4.0,9.0,48,0.00,CLR,CLR,0.28,WeatherDisplay:10.34,2013-01-25 11:37:00,
2013-01-25 06:42:00,1.9,-13.3,30.39,WSW,248,5.0,12.0,48,0.00,CLR,CLR,0.28,WeatherDisplay:10.34,2013-01-25 11:42:00,
2013-01-25 06:47:00,1.6,-13.6,30.39,West,259,5.0,12.0,48,0.00,CLR,CLR,0.28,WeatherDisplay:10.34,2013-01-25 11:47:00,
2013-01-25 06:52:00,1.6,-13.6,30.39,NNE,15,4.0,9.0,48,0.00,CLR,CLR,0.28,WeatherDisplay:10.34,2013-01-25 11:52:00,
2013-01-25 06:57:00,1.6,-13.6,30.39,SW,219,5.0,14.0,48,0.00,CLR,CLR,0.28,WeatherDisplay:10.34,2013-01-25 11:57:00,
2013-01-25 07:02:00,1.6,-13.6,30.39,NNW,331,0.0,12.0,48,0.00,CLR,CLR,0.28,WeatherDisplay:10.34,2013-01-25 12:02:00,
2013-01-25 07:07:00,1.9,-13.3,30.39,WNW,300,4.0,7.0,48,0.00,CLR,CLR,0.28,WeatherDisplay:10.34,2013-01-25 12:07:00,
2013-01-25 07:12:00,1.9,-13.3,30.39,West,273,4.0,9.0,48,0.00,CLR,CLR,0.28,WeatherDisplay:10.34,2013-01-25 12:12:00,
2013-01-25 07:17:00,1.9,-13.3,30.39,West,262,3.0,9.0,48,0.00,CLR,CLR,0.28,WeatherDisplay:10.34,2013-01-25 12:17:00,
2013-01-25 07:22:00,1.9,-13.3,30.39,WSW,257,5.0,10.0,48,0.00,CLR,CLR,0.28,WeatherDisplay:10.34,2013-01-25 12:22:00,
2013-01-25 07:27:00,2.1,-13.1,30.39,North,351,4.0,7.0,48,0.00,CLR,CLR,0.28,WeatherDisplay:10.34,2013-01-25 12:27:00,
2013-01-25 07:32:00,2.5,-12.8,30.39,WNW,284,4.0,12.0,48,0.00,CLR,CLR,0.28,WeatherDisplay:10.34,2013-01-25 12:32:00,
2013-01-25 07:37:00,2.1,-13.1,30.39,NW,324,6.0,10.0,48,0.00,CLR,CLR,0.28,WeatherDisplay:10.34,2013-01-25 12:37:00,
2013-01-25 07:42:00,1.9,-13.3,30.39,West,271,5.0,7.0,48,0.00,CLR,CLR,0.28,WeatherDisplay:10.34,2013-01-25 12:42:00,
2013-01-25 07:47:00,2.3,-12.9,30.39,NNE,12,6.0,13.0,48,0.00,CLR,CLR,0.28,WeatherDisplay:10.34,2013-01-25 12:47:00,
2013-01-25 07:52:00,2.5,-12.8,30.39,WNW,290,5.0,10.0,48,0.00,CLR,CLR,0.28,WeatherDisplay:10.34,2013-01-25 12:52:00,
2013-01-25 07:57:00,2.8,-12.4,30.39,West,271,5.0,8.0,48,0.00,CLR,CLR,0.28,WeatherDisplay:10.34,2013-01-25 12:57:00,
2013-01-25 08:02:00,2.7,-12.6,30.39,WNW,302,5.0,7.0,48,0.00,CLR,CLR,0.28,WeatherDisplay:10.34,2013-01-25 13:02:00,
2013-01-25 08:07:00,2.8,-12.4,30.39,West,260,5.0,12.0,48,0.00,CLR,CLR,0.28,WeatherDisplay:10.34,2013-01-25 13:07:00,
2013-01-25 08:12:00,2.7,-12.6,30.39,WNW,302,4.0,9.0,48,0.00,CLR,CLR,0.28,WeatherDisplay:10.34,2013-01-25 13:12:00,
2013-01-25 08:17:00,3.2,-12.1,30.42,NW,317,6.0,8.0,48,0.00,CLR,CLR,0.28,WeatherDisplay:10.34,2013-01-25 13:17:00,
2013-01-25 08:22:00,3.2,-12.1,30.42,North,356,5.0,8.0,48,0.00,CLR,CLR,0.28,WeatherDisplay:10.34,2013-01-25 13:22:00,
2013-01-25 08:27:00,3.0,-12.3,30.42,West,272,4.0,8.0,48,0.00,CLR,CLR,0.28,WeatherDisplay:10.34,2013-01-25 13:27:00,
2013-01-25 08:32:00,3.2,-12.1,30.42,North,356,5.0,8.0,48,0.00,CLR,CLR,0.28,WeatherDisplay:10.34,2013-01-25 13:32:00,
2013-01-25 08:37:00,3.4,-11.9,30.42,WSW,237,5.0,8.0,48,0.00,CLR,CLR,0.28,WeatherDisplay:10.34,2013-01-25 13:37:00,
2013-01-25 08:42:00,3.4,-11.9,30.42,NNW,336,6.0,12.0,48,0.00,CLR,CLR,0.28,WeatherDisplay:10.34,2013-01-25 13:42:00,
2013-01-25 08:47:00,3.7,-11.6,30.42,WNW,288,4.0,7.0,48,0.00,CLR,CLR,0.28,WeatherDisplay:10.34,2013-01-25 13:47:00,
2013-01-25 08:52:00,3.9,-11.4,30.42,WSW,254,4.0,10.0,48,0.00,CLR,CLR,0.28,WeatherDisplay:10.34,2013-01-25 13:52:00,
2013-01-25 08:57:00,3.7,-11.6,30.42,WSW,257,4.0,10.0,48,0.00,CLR,CLR,0.28,WeatherDisplay:10.34,2013-01-25 13:57:00,
2013-01-25 09:02:00,4.1,-11.3,30.42,NW,316,4.0,7.0,48,0.00,CLR,CLR,0.28,WeatherDisplay:10.34,2013-01-25 14:02:00,
2013-01-25 09:07:00,4.2,-11.2,30.42,WSW,244,4.0,7.0,48,0.00,CLR,CLR,0.28,WeatherDisplay:10.34,2013-01-25 14:07:00,
2013-01-25 09:12:00,4.4,-11.0,30.42,South,189,4.0,9.0,48,0.00,CLR,CLR,0.28,WeatherDisplay:10.34,2013-01-25 14:12:00,
2013-01-25 09:17:00,5.0,-10.4,30.42,WNW,290,4.0,9.0,48,0.00,CLR,CLR,0.28,WeatherDisplay:10.34,2013-01-25 14:17:00,
2013-01-25 09:22:00,5.0,-10.5,30.42,SW,235,3.0,6.0,48,0.00,CLR,CLR,0.28,WeatherDisplay:10.34,2013-01-25 14:22:00,
2013-01-25 09:27:00,5.3,-10.2,30.42,West,272,4.0,8.0,48,0.00,CLR,CLR,0.28,WeatherDisplay:10.34,2013-01-25 14:27:00,
2013-01-25 09:32:00,5.4,-10.1,30.42,West,275,5.0,10.0,48,0.00,CLR,CLR,0.28,WeatherDisplay:10.34,2013-01-25 14:32:00,
2013-01-25 09:37:00,5.4,-10.1,30.42,West,276,8.0,13.0,48,0.00,CLR,CLR,0.28,WeatherDisplay:10.34,2013-01-25 14:37:00,
2013-01-25 09:42:00,5.5,-9.9,30.42,WSW,240,7.0,9.0,48,0.00,CLR,CLR,0.28,WeatherDisplay:10.34,2013-01-25 14:42:00,
2013-01-25 09:47:00,5.5,-9.9,30.45,SW,218,4.0,6.0,48,0.00,CLR,CLR,0.28,WeatherDisplay:10.34,2013-01-25 14:47:00,
2013-01-25 09:52:00,5.9,-9.6,30.45,SSW,213,6.0,14.0,48,0.00,CLR,CLR,0.28,WeatherDisplay:10.34,2013-01-25 14:52:00,
2013-01-25 09:57:00,5.9,-9.6,30.45,SSW,203,3.0,9.0,48,0.00,CLR,CLR,0.28,WeatherDisplay:10.34,2013-01-25 14:57:00,
2013-01-25 10:02:00,5.9,-9.6,30.45,NE,51,7.0,10.0,48,0.00,CLR,CLR,0.28,WeatherDisplay:10.34,2013-01-25 15:02:00,
2013-01-25 10:07:00,5.5,-9.9,30.45,North,351,7.0,13.0,48,0.00,CLR,CLR,0.28,WeatherDisplay:10.34,2013-01-25 15:07:00,
2013-01-25 10:12:00,5.9,-9.6,30.45,West,260,5.0,9.0,48,0.00,CLR,CLR,0.28,WeatherDisplay:10.34,2013-01-25 15:12:00,
2013-01-25 10:17:00,6.4,-9.1,30.42,WNW,293,7.0,8.0,48,0.00,CLR,CLR,0.28,WeatherDisplay:10.34,2013-01-25 15:17:00,
2013-01-25 10:22:00,6.8,-8.8,30.42,NW,309,5.0,7.0,48,0.00,CLR,CLR,0.28,WeatherDisplay:10.34,2013-01-25 15:22:00,
2013-01-25 10:27:00,7.0,-8.6,30.42,WNW,297,6.0,9.0,48,0.00,CLR,CLR,0.28,WeatherDisplay:10.34,2013-01-25 15:27:00,
2013-01-25 10:32:00,7.0,-8.6,30.42,WSW,252,5.0,12.0,48,0.00,CLR,CLR,0.28,WeatherDisplay:10.34,2013-01-25 15:32:00,
2013-01-25 10:37:00,7.2,-8.4,30.42,North,356,4.0,6.0,48,0.00,CLR,CLR,0.28,WeatherDisplay:10.34,2013-01-25 15:37:00,
2013-01-25 10:42:00,7.9,-7.8,30.42,West,272,6.0,9.0,48,0.00,CLR,CLR,0.28,WeatherDisplay:10.34,2013-01-25 15:42:00,
2013-01-25 10:47:00,7.9,-7.8,30.42,WNW,300,6.0,8.0,48,0.00,CLR,CLR,0.28,WeatherDisplay:10.34,2013-01-25 15:47:00,
2013-01-25 10:52:00,8.2,-7.4,30.42,WSW,258,5.0,12.0,48,0.00,CLR,CLR,0.28,WeatherDisplay:10.34,2013-01-25 15:52:00,
2013-01-25 10:57:00,8.3,-7.4,30.42,WNW,286,5.0,9.0,48,0.00,CLR,CLR,0.28,WeatherDisplay:10.34,2013-01-25 15:57:00,
2013-01-25 11:02:00,8.8,-6.9,30.42,WNW,300,5.0,7.0,48,0.00,CLR,CLR,0.28,WeatherDisplay:10.34,2013-01-25 16:02:00,
2013-01-25 11:07:00,8.8,-6.9,30.42,NNE,16,5.0,12.0,48,0.00,CLR,CLR,0.28,WeatherDisplay:10.34,2013-01-25 16:07:00,
2013-01-25 11:12:00,8.8,-6.9,30.42,NW,321,3.0,5.0,48,0.04,RA,RA,0.31,WeatherDisplay:10.34,2013-01-25 16:12:00,
2013-01-25 11:17:00,9.1,-6.6,30.41,NW,317,4.0,6.0,48,0.04,CLR,CLR,0.31,WeatherDisplay:10.34,2013-01-25 16:17:00,
2013-01-25 11:22:00,9.5,-6.3,30.41,West,259,4.0,8.0,48,0.04,CLR,CLR,0.31,WeatherDisplay:10.34,2013-01-25 16:22:00,
2013-01-25 11:27:00,9.9,-5.9,30.41,NW,305,6.0,8.0,48,0.04,CLR,CLR,0.31,WeatherDisplay:10.34,2013-01-25 16:27:00,
2013-01-25 11:32:00,10.2,-5.6,30.41,WSW,243,4.0,10.0,48,0.04,CLR,CLR,0.31,WeatherDisplay:10.34,2013-01-25 16:32:00,
2013-01-25 11:37:00,10.6,-5.3,30.41,West,281,6.0,12.0,48,0.04,CLR,CLR,0.31,WeatherDisplay:10.34,2013-01-25 16:37:00,
2013-01-25 11:42:00,10.5,-5.4,30.41,WNW,282,5.0,6.0,48,0.04,CLR,CLR,0.31,WeatherDisplay:10.34,2013-01-25 16:42:00,
2013-01-25 11:47:00,10.4,-5.4,30.38,NNW,335,4.0,8.0,48,0.04,CLR,CLR,0.31,WeatherDisplay:10.34,2013-01-25 16:47:00,
2013-01-25 11:52:00,10.6,-5.3,30.38,WNW,286,5.0,7.0,48,0.04,CLR,CLR,0.31,WeatherDisplay:10.34,2013-01-25 16:52:00,
2013-01-25 11:58:00,10.7,-5.1,30.38,North,1,3.0,5.0,48,0.04,CLR,CLR,0.31,WeatherDisplay:10.34,2013-01-25 16:58:00,
2013-01-25 12:03:00,10.8,-5.1,30.38,NNW,330,6.0,10.0,48,0.04,CLR,CLR,0.31,WeatherDisplay:10.34,2013-01-25 17:03:00,
2013-01-25 12:08:00,10.6,-5.3,30.38,WNW,285,7.0,9.0,48,0.00,CLR,CLR,0.31,WeatherDisplay:10.34,2013-01-25 17:08:00,
2013-01-25 12:13:00,10.4,-5.4,30.38,NNW,344,6.0,9.0,48,0.04,RA,RA,0.35,WeatherDisplay:10.34,2013-01-25 17:13:00,
2013-01-25 12:18:00,10.4,-5.4,30.38,WNW,287,4.0,6.0,48,0.04,RA,RA,0.35,WeatherDisplay:10.34,2013-01-25 17:18:00,
2013-01-25 12:23:00,10.7,-5.2,30.38,NNW,343,3.0,7.0,48,0.08,RA,RA,0.39,WeatherDisplay:10.34,2013-01-25 17:23:00,
2013-01-25 12:28:00,10.6,-5.2,30.38,WNW,299,4.0,5.0,48,0.08,RA,RA,0.39,WeatherDisplay:10.34,2013-01-25 17:28:00,
2013-01-25 12:33:00,10.9,-4.9,30.38,NW,308,4.0,7.0,48,0.08,CLR,CLR,0.39,WeatherDisplay:10.34,2013-01-25 17:33:00,
2013-01-25 12:38:00,11.1,-4.8,30.38,NW,305,4.0,9.0,48,0.08,CLR,CLR,0.39,WeatherDisplay:10.34,2013-01-25 17:38:00,
2013-01-25 12:43:00,11.3,-4.6,30.38,NW,309,4.0,9.0,48,0.12,RA,RA,0.43,WeatherDisplay:10.34,2013-01-25 17:43:00,
2013-01-25 12:48:00,11.7,-4.3,30.38,NW,318,4.0,8.0,48,0.12,RA,RA,0.43,WeatherDisplay:10.34,2013-01-25 17:48:00,
2013-01-25 12:53:00,11.8,-4.1,30.38,West,264,0.0,3.0,48,0.12,CLR,CLR,0.43,WeatherDisplay:10.34,2013-01-25 17:53:00,
2013-01-25 12:58:00,12.0,-4.0,30.38,West,279,6.0,10.0,48,0.12,CLR,CLR,0.43,WeatherDisplay:10.34,2013-01-25 17:58:00,
2013-01-25 13:03:00,11.9,-4.0,30.38,NW,313,5.0,9.0,48,0.12,CLR,CLR,0.43,WeatherDisplay:10.34,2013-01-25 18:03:00,
2013-01-25 13:08:00,12.0,-3.9,30.38,WSW,257,4.0,8.0,48,0.12,CLR,CLR,0.43,WeatherDisplay:10.34,2013-01-25 18:08:00,
2013-01-25 13:13:00,12.0,-4.0,30.38,North,351,3.0,6.0,48,0.08,CLR,CLR,0.43,WeatherDisplay:10.34,2013-01-25 18:13:00,
2013-01-25 13:18:00,11.9,-4.0,30.38,SSW,198,6.0,9.0,48,0.08,CLR,CLR,0.43,WeatherDisplay:10.34,2013-01-25 18:18:00,
2013-01-25 13:23:00,12.4,-3.6,30.38,SW,233,4.0,7.0,48,0.08,RA,RA,0.47,WeatherDisplay:10.34,2013-01-25 18:23:00,
2013-01-25 13:28:00,12.4,-3.6,30.38,SSW,198,3.0,5.0,48,0.08,RA,RA,0.47,WeatherDisplay:10.34,2013-01-25 18:28:00,
2013-01-25 13:33:00,12.7,-3.3,30.35,WSW,246,4.0,8.0,48,0.08,CLR,CLR,0.47,WeatherDisplay:10.34,2013-01-25 18:33:00,
2013-01-25 13:38:00,13.1,-2.9,30.34,North,8,3.0,10.0,48,0.08,CLR,CLR,0.47,WeatherDisplay:10.34,2013-01-25 18:38:00,
2013-01-25 13:43:00,13.4,-2.6,30.34,West,259,4.0,9.0,48,0.04,CLR,CLR,0.47,WeatherDisplay:10.34,2013-01-25 18:43:00,
2013-01-25 13:48:00,13.6,-2.4,30.34,WNW,302,3.0,8.0,48,0.04,CLR,CLR,0.47,WeatherDisplay:10.34,2013-01-25 18:48:00,
2013-01-25 13:53:00,14.0,-8.1,30.34,WSW,255,4.0,7.0,36,0.04,CLR,CLR,0.47,WeatherDisplay:10.34,2013-01-25 18:53:00,
2013-01-25 13:58:00,14.0,-8.1,30.34,WNW,298,5.0,10.0,36,0.04,CLR,CLR,0.47,WeatherDisplay:10.34,2013-01-25 18:58:00,
2013-01-25 14:03:00,14.1,-8.0,30.34,NNW,331,5.0,6.0,36,0.04,CLR,CLR,0.47,WeatherDisplay:10.34,2013-01-25 19:03:00,
2013-01-25 14:08:00,14.2,-7.9,30.34,WSW,252,7.0,10.0,36,0.04,CLR,CLR,0.47,WeatherDisplay:10.34,2013-01-25 19:08:00,
2013-01-25 14:13:00,14.0,-8.7,30.34,WNW,297,6.0,7.0,35,0.04,CLR,CLR,0.47,WeatherDisplay:10.34,2013-01-25 19:13:00,
2013-01-25 14:18:00,13.8,-8.8,30.34,North,4,4.0,9.0,35,0.04,CLR,CLR,0.47,WeatherDisplay:10.34,2013-01-25 19:18:00,
2013-01-25 14:23:00,13.6,-9.0,30.34,NNW,333,6.0,9.0,35,0.00,CLR,CLR,0.47,WeatherDisplay:10.34,2013-01-25 19:23:00,
2013-01-25 14:28:00,13.8,-8.9,30.34,North,11,3.0,5.0,35,0.00,CLR,CLR,0.47,WeatherDisplay:10.34,2013-01-25 19:28:00,
2013-01-25 14:33:00,14.0,-8.7,30.34,NNW,327,5.0,8.0,35,0.00,CLR,CLR,0.47,WeatherDisplay:10.34,2013-01-25 19:33:00,
2013-01-25 14:38:00,14.3,-8.4,30.34,North,0,6.0,10.0,35,0.00,CLR,CLR,0.47,WeatherDisplay:10.34,2013-01-25 19:38:00,
2013-01-25 14:43:00,14.2,-8.5,30.34,SW,234,4.0,12.0,35,0.00,CLR,CLR,0.47,WeatherDisplay:10.34,2013-01-25 19:43:00,
2013-01-25 14:48:00,14.2,-8.5,30.34,NNW,329,4.0,7.0,35,0.00,CLR,CLR,0.47,WeatherDisplay:10.34,2013-01-25 19:48:00,
2013-01-25 14:53:00,14.0,-8.7,30.34,West,276,5.0,9.0,35,0.00,CLR,CLR,0.47,WeatherDisplay:10.34,2013-01-25 19:53:00,
2013-01-25 14:58:00,14.0,-8.7,30.34,West,275,4.0,5.0,35,0.00,CLR,CLR,0.47,WeatherDisplay:10.34,2013-01-25 19:58:00,
2013-01-25 15:03:00,14.0,-8.7,30.31,SSW,212,3.0,6.0,35,0.00,CLR,CLR,0.47,WeatherDisplay:10.34,2013-01-25 20:03:00,
2013-01-25 15:09:00,14.0,-8.7,30.31,WNW,282,3.0,6.0,35,0.04,RA,RA,0.51,WeatherDisplay:10.34,2013-01-25 20:09:00,
2013-01-25 15:14:00,14.0,-8.7,30.31,WNW,299,3.0,7.0,35,0.04,RA,RA,0.51,WeatherDisplay:10.34,2013-01-25 20:14:00,
2013-01-25 15:19:00,13.8,-8.8,30.31,NNW,329,3.0,5.0,35,0.04,CLR,CLR,0.51,WeatherDisplay:10.34,2013-01-25 20:19:00,
2013-01-25 15:24:00,14.0,-8.7,30.31,SSW,209,3.0,10.0,35,0.04,CLR,CLR,0.51,WeatherDisplay:10.34,2013-01-25 20:24:00,
2013-01-25 15:30:00,14.0,-8.7,30.31,WSW,257,7.0,12.0,35,0.04,CLR,CLR,0.51,WeatherDisplay:10.34,2013-01-25 20:30:00,
2013-01-25 15:35:00,14.2,-8.5,30.34,WSW,255,4.0,9.0,35,0.04,CLR,CLR,0.51,WeatherDisplay:10.34,2013-01-25 20:35:00,
2013-01-25 15:40:00,14.2,-8.5,30.34,North,351,0.0,6.0,35,0.04,CLR,CLR,0.51,WeatherDisplay:10.34,2013-01-25 20:40:00,
2013-01-25 15:45:00,14.0,-8.7,30.31,West,261,3.0,5.0,35,0.04,CLR,CLR,0.51,WeatherDisplay:10.34,2013-01-25 20:45:00,
2013-01-25 15:50:00,14.0,-8.7,30.31,WSW,238,4.0,7.0,35,0.04,CLR,CLR,0.51,WeatherDisplay:10.34,2013-01-25 20:50:00,
2013-01-25 15:55:00,13.6,-9.0,30.31,WNW,282,3.0,5.0,35,0.04,CLR,CLR,0.51,WeatherDisplay:10.34,2013-01-25 20:55:00,
2013-01-25 16:00:00,13.5,-9.2,30.31,North,4,4.0,7.0,35,0.04,CLR,CLR,0.51,WeatherDisplay:10.34,2013-01-25 21:00:00,
2013-01-25 16:05:00,13.6,-9.0,30.31,NNW,340,0.0,6.0,35,0.04,CLR,CLR,0.51,WeatherDisplay:10.34,2013-01-25 21:05:00,
2013-01-25 16:10:00,13.5,-9.2,30.31,West,267,3.0,9.0,35,0.00,CLR,CLR,0.51,WeatherDisplay:10.34,2013-01-25 21:10:00,
2013-01-25 16:15:00,13.5,-9.2,30.31,NW,314,4.0,7.0,35,0.00,CLR,CLR,0.51,WeatherDisplay:10.34,2013-01-25 21:15:00,
2013-01-25 16:20:00,13.3,-9.3,30.31,NW,323,5.0,8.0,35,0.00,CLR,CLR,0.55,WeatherDisplay:10.34,2013-01-25 21:20:00,
2013-01-25 16:25:00,13.3,-9.3,30.31,NW,323,4.0,7.0,35,0.04,RA,RA,0.55,WeatherDisplay:10.34,2013-01-25 21:25:00,
2013-01-25 16:31:00,13.1,-9.5,30.31,North,2,3.0,8.0,35,0.04,CLR,CLR,0.55,WeatherDisplay:10.34,2013-01-25 21:31:00,
2013-01-25 16:36:00,13.1,-9.5,30.31,NNE,28,4.0,7.0,35,0.04,CLR,CLR,0.55,WeatherDisplay:10.34,2013-01-25 21:36:00,
2013-01-25 16:41:00,13.1,-9.5,30.31,West,260,4.0,7.0,35,0.08,RA,RA,0.59,WeatherDisplay:10.34,2013-01-25 21:41:00,
2013-01-25 16:46:00,13.1,-9.5,30.31,North,356,3.0,6.0,35,0.08,RA,RA,0.59,WeatherDisplay:10.34,2013-01-25 21:46:00,
2013-01-25 16:51:00,12.9,-9.6,30.31,SW,219,3.0,6.0,35,0.08,CLR,CLR,0.59,WeatherDisplay:10.34,2013-01-25 21:51:00,
2013-01-25 16:56:00,13.1,-9.5,30.31,NNW,340,3.0,6.0,35,0.08,CLR,CLR,0.59,WeatherDisplay:10.34,2013-01-25 21:56:00,
2013-01-25 17:01:00,13.1,-9.5,30.31,West,266,4.0,9.0,35,0.08,CLR,CLR,0.59,WeatherDisplay:10.34,2013-01-25 22:01:00,
2013-01-25 17:06:00,12.9,-9.6,30.31,NNW,339,0.0,6.0,35,0.12,RA,RA,0.63,WeatherDisplay:10.34,2013-01-25 22:06:00,
2013-01-25 17:11:00,12.9,-9.6,30.31,WNW,302,0.0,3.0,35,0.12,RA,RA,0.63,WeatherDisplay:10.34,2013-01-25 22:11:00,
2013-01-25 17:16:00,12.9,-9.6,30.31,North,356,3.0,7.0,35,0.12,CLR,CLR,0.63,WeatherDisplay:10.34,2013-01-25 22:16:00,
2013-01-25 17:21:00,12.7,-9.8,30.31,NW,320,4.0,6.0,35,0.08,CLR,CLR,0.63,WeatherDisplay:10.34,2013-01-25 22:21:00,
2013-01-25 17:26:00,12.6,-10.0,30.31,West,275,0.0,2.0,35,0.08,CLR,CLR,0.63,WeatherDisplay:10.34,2013-01-25 22:26:00,
2013-01-25 17:31:00,12.6,-10.0,30.31,NNW,335,3.0,5.0,35,0.16,RA,RA,0.71,WeatherDisplay:10.34,2013-01-25 22:31:00,
2013-01-25 17:36:00,12.7,-9.8,30.31,WNW,302,3.0,3.0,35,0.16,RA,RA,0.71,WeatherDisplay:10.34,2013-01-25 22:36:00,
2013-01-25 17:41:00,12.6,-10.0,30.31,NNW,339,4.0,7.0,35,0.12,CLR,CLR,0.71,WeatherDisplay:10.34,2013-01-25 22:41:00,
2013-01-25 17:46:00,12.4,-10.1,30.31,SW,220,4.0,6.0,35,0.12,CLR,CLR,0.71,WeatherDisplay:10.34,2013-01-25 22:46:00,
2013-01-25 17:51:00,12.2,-10.3,30.32,WSW,256,3.0,8.0,35,0.12,CLR,CLR,0.71,WeatherDisplay:10.34,2013-01-25 22:51:00,
2013-01-25 17:56:00,12.2,-10.3,30.32,NW,324,0.0,8.0,35,0.12,CLR,CLR,0.71,WeatherDisplay:10.34,2013-01-25 22:56:00,
2013-01-25 18:01:00,12.4,-10.1,30.32,WNW,303,3.0,7.0,35,0.12,CLR,CLR,0.75,WeatherDisplay:10.34,2013-01-25 23:01:00,
2013-01-25 18:06:00,12.0,-10.4,30.32,West,265,4.0,10.0,35,0.12,RA,RA,0.75,WeatherDisplay:10.34,2013-01-25 23:06:00,
2013-01-25 18:11:00,11.8,-10.6,30.32,North,351,4.0,5.0,35,0.12,CLR,CLR,0.75,WeatherDisplay:10.34,2013-01-25 23:11:00,
2013-01-25 18:16:00,12.0,-10.4,30.32,West,280,4.0,7.0,35,0.12,CLR,CLR,0.75,WeatherDisplay:10.34,2013-01-25 23:16:00,
2013-01-25 18:21:00,12.2,-10.3,30.32,NNE,17,0.0,3.0,35,0.12,CLR,CLR,0.75,WeatherDisplay:10.34,2013-01-25 23:21:00,
2013-01-25 18:26:00,12.2,-10.3,30.32,North,356,3.0,5.0,35,0.12,CLR,CLR,0.75,WeatherDisplay:10.34,2013-01-25 23:26:00,
2013-01-25 18:31:00,12.4,-10.1,30.32,NNW,334,0.0,3.0,35,0.04,CLR,CLR,0.75,WeatherDisplay:10.34,2013-01-25 23:31:00,
2013-01-25 18:36:00,12.6,-10.0,30.32,West,264,3.0,5.0,35,0.04,CLR,CLR,0.75,WeatherDisplay:10.34,2013-01-25 23:36:00,
2013-01-25 18:41:00,12.4,-10.1,30.32,WNW,284,3.0,6.0,35,0.04,CLR,CLR,0.75,WeatherDisplay:10.34,2013-01-25 23:41:00,
2013-01-25 18:46:00,12.4,-10.1,30.32,NNW,339,3.0,5.0,35,0.04,CLR,CLR,0.75,WeatherDisplay:10.34,2013-01-25 23:46:00,
2013-01-25 18:51:00,12.6,-10.0,30.32,West,264,0.0,3.0,35,0.04,CLR,CLR,0.75,WeatherDisplay:10.34,2013-01-25 23:51:00,
2013-01-25 18:56:00,12.6,-10.0,30.32,NW,309,3.0,8.0,35,0.04,CLR,CLR,0.75,WeatherDisplay:10.34,2013-01-25 23:56:00,
2013-01-25 19:01:00,12.6,-10.0,30.32,West,280,3.0,5.0,35,0.04,RA,RA,0.79,WeatherDisplay:10.34,2013-01-26 00:01:00,
2013-01-25 19:06:00,12.6,-10.0,30.32,West,260,3.0,3.0,35,0.04,RA,RA,0.79,WeatherDisplay:10.34,2013-01-26 00:06:00,
2013-01-25 19:11:00,12.7,-9.8,30.32,West,269,3.0,6.0,35,0.04,SCT,SCT,0.79,WeatherDisplay:10.34,2013-01-26 00:11:00,
2013-01-25 19:16:00,12.7,-9.8,30.28,West,270,0.0,3.0,35,0.04,SCT,SCT,0.79,WeatherDisplay:10.34,2013-01-26 00:16:00,
2013-01-25 19:21:00,12.7,-9.8,30.28,West,269,0.0,5.0,35,0.04,SCT,SCT,0.79,WeatherDisplay:10.34,2013-01-26 00:21:00,
2013-01-25 19:26:00,12.7,-9.8,30.28,West,270,0.0,0.0,35,0.04,SCT,SCT,0.79,WeatherDisplay:10.34,2013-01-26 00:26:00,
2013-01-25 19:31:00,12.7,-9.8,30.28,West,270,0.0,3.0,35,0.04,SCT,SCT,0.79,WeatherDisplay:10.34,2013-01-26 00:31:00,
2013-01-25 19:36:00,12.9,-9.6,30.28,West,270,0.0,5.0,35,0.04,SCT,SCT,0.79,WeatherDisplay:10.34,2013-01-26 00:36:00,
2013-01-25 19:41:00,12.7,-9.8,30.28,West,270,0.0,0.0,35,0.04,SCT,SCT,0.79,WeatherDisplay:10.34,2013-01-26 00:41:00,
2013-01-25 19:46:00,12.9,-9.6,30.28,West,270,3.0,3.0,35,0.04,SCT,SCT,0.79,WeatherDisplay:10.34,2013-01-26 00:46:00,
2013-01-25 19:51:00,12.9,-9.6,30.28,West,270,3.0,5.0,35,0.04,SCT,SCT,0.79,WeatherDisplay:10.34,2013-01-26 00:51:00,
2013-01-25 19:56:00,12.9,-9.6,30.28,West,270,0.0,3.0,35,0.04,SCT,SCT,0.79,WeatherDisplay:10.34,2013-01-26 00:56:00,
2013-01-25 20:01:00,12.9,-9.6,30.28,West,261,0.0,3.0,35,0.00,BKN,BKN,0.79,WeatherDisplay:10.34,2013-01-26 01:01:00,
2013-01-25 20:06:00,13.1,-9.5,30.28,West,261,0.0,0.0,35,0.00,BKN,BKN,0.79,WeatherDisplay:10.34,2013-01-26 01:06:00,
2013-01-25 20:11:00,13.1,-9.5,30.28,West,261,0.0,0.0,35,0.00,BKN,BKN,0.79,WeatherDisplay:10.34,2013-01-26 01:11:00,
2013-01-25 20:16:00,13.1,-9.5,30.28,West,261,0.0,0.0,35,0.00,BKN,BKN,0.79,WeatherDisplay:10.34,2013-01-26 01:16:00,
2013-01-25 20:21:00,13.3,-9.3,30.28,West,261,3.0,3.0,35,0.00,BKN,BKN,0.79,WeatherDisplay:10.34,2013-01-26 01:21:00,
2013-01-25 20:26:00,13.3,-9.3,30.28,WNW,285,0.0,6.0,35,0.04,RA,RA,0.83,WeatherDisplay:10.34,2013-01-26 01:26:00,
2013-01-25 20:31:00,13.1,-9.5,30.28,West,275,0.0,3.0,35,0.04,RA,RA,0.83,WeatherDisplay:10.34,2013-01-26 01:31:00,
2013-01-25 20:36:00,13.1,-9.5,30.28,WNW,290,0.0,0.0,35,0.04,BKN,BKN,0.83,WeatherDisplay:10.34,2013-01-26 01:36:00,
2013-01-25 20:41:00,13.1,-9.5,30.28,WNW,284,0.0,2.0,35,0.04,BKN,BKN,0.83,WeatherDisplay:10.34,2013-01-26 01:41:00,
2013-01-25 20:46:00,13.1,-9.5,30.28,WNW,284,0.0,3.0,35,0.04,BKN,BKN,0.83,WeatherDisplay:10.34,2013-01-26 01:46:00,
2013-01-25 20:51:00,13.1,-9.5,30.28,WNW,284,0.0,0.0,35,0.04,BKN,BKN,0.83,WeatherDisplay:10.34,2013-01-26 01:51:00,
2013-01-25 20:56:00,13.3,-9.3,30.28,WNW,284,0.0,3.0,35,0.04,BKN,BKN,0.83,WeatherDisplay:10.34,2013-01-26 01:56:00,
2013-01-25 21:01:00,13.3,-9.3,30.28,WNW,284,3.0,5.0,35,0.04,OVC,OVC,0.83,WeatherDisplay:10.34,2013-01-26 02:01:00,
2013-01-25 21:06:00,13.1,-9.5,30.28,WNW,283,0.0,0.0,35,0.04,OVC,OVC,0.83,WeatherDisplay:10.34,2013-01-26 02:06:00,
2013-01-25 21:11:00,13.1,-9.5,30.28,WNW,284,0.0,0.0,35,0.04,OVC,OVC,0.83,WeatherDisplay:10.34,2013-01-26 02:11:00,
2013-01-25 21:16:00,13.3,-9.3,30.25,WNW,283,0.0,0.0,35,0.04,OVC,OVC,0.83,WeatherDisplay:10.34,2013-01-26 02:16:00,
2013-01-25 21:21:00,13.3,-9.3,30.25,WNW,284,0.0,0.0,35,0.04,OVC,OVC,0.83,WeatherDisplay:10.34,2013-01-26 02:21:00,
2013-01-25 21:26:00,13.3,-9.3,30.25,WNW,283,0.0,0.0,35,0.00,OVC,OVC,0.83,WeatherDisplay:10.34,2013-01-26 02:26:00,
2013-01-25 21:31:00,13.3,-9.3,30.28,WNW,283,0.0,0.0,35,0.00,OVC,OVC,0.83,WeatherDisplay:10.34,2013-01-26 02:31:00,
2013-01-25 21:36:00,13.3,-9.3,30.28,WNW,284,0.0,0.0,35,0.00,OVC,OVC,0.83,WeatherDisplay:10.34,2013-01-26 02:36:00,
2013-01-25 21:41:00,13.5,-9.2,30.28,WNW,284,0.0,0.0,35,0.00,OVC,OVC,0.83,WeatherDisplay:10.34,2013-01-26 02:41:00,
2013-01-25 21:46:00,13.3,-9.3,30.28,WNW,283,0.0,2.0,35,0.04,RA,RA,0.87,WeatherDisplay:10.34,2013-01-26 02:46:00,
2013-01-25 21:51:00,13.3,-9.3,30.28,WNW,283,0.0,0.0,35,0.04,RA,RA,0.87,WeatherDisplay:10.34,2013-01-26 02:51:00,
2013-01-25 21:56:00,13.3,-9.3,30.28,WNW,284,0.0,0.0,35,0.04,OVC,OVC,0.87,WeatherDisplay:10.34,2013-01-26 02:56:00,
2013-01-25 22:01:00,13.3,-9.3,30.25,NW,321,4.0,6.0,35,0.04,OVC,OVC,0.87,WeatherDisplay:10.34,2013-01-26 03:01:00,
2013-01-25 22:06:00,13.1,-9.5,30.25,WNW,296,0.0,3.0,35,0.04,OVC,OVC,0.87,WeatherDisplay:10.34,2013-01-26 03:06:00,
2013-01-25 22:11:00,13.1,-9.5,30.25,WNW,290,0.0,0.0,35,0.04,OVC,OVC,0.87,WeatherDisplay:10.34,2013-01-26 03:11:00,
2013-01-25 22:16:00,13.1,-9.5,30.25,West,274,4.0,7.0,35,0.04,OVC,OVC,0.87,WeatherDisplay:10.34,2013-01-26 03:16:00,
2013-01-25 22:21:00,13.1,-9.5,30.25,West,275,0.0,0.0,35,0.08,RA,RA,0.91,WeatherDisplay:10.34,2013-01-26 03:21:00,
2013-01-25 22:26:00,13.1,-9.5,30.25,West,275,0.0,0.0,35,0.12,RA,RA,0.94,WeatherDisplay:10.34,2013-01-26 03:26:00,
2013-01-25 22:31:00,13.1,-9.5,30.25,West,275,0.0,3.0,35,0.16,RA,RA,0.98,WeatherDisplay:10.34,2013-01-26 03:31:00,
2013-01-25 22:36:00,13.1,-9.5,30.25,West,275,0.0,3.0,35,0.24,RA,RA,1.06,WeatherDisplay:10.34,2013-01-26 03:36:00,
2013-01-25 22:41:00,13.1,-9.5,30.25,West,275,3.0,3.0,35,0.24,RA,RA,1.06,WeatherDisplay:10.34,2013-01-26 03:41:00,
2013-01-25 22:46:00,13.1,-9.5,30.24,West,276,0.0,0.0,35,0.20,OVC,OVC,1.06,WeatherDisplay:10.34,2013-01-26 03:46:00,
2013-01-25 22:51:00,13.1,-9.5,30.24,West,277,0.0,2.0,35,0.20,OVC,OVC,1.06,WeatherDisplay:10.34,2013-01-26 03:51:00,
2013-01-25 22:56:00,13.1,-9.5,30.24,West,277,0.0,3.0,35,0.20,OVC,OVC,1.06,WeatherDisplay:10.34,2013-01-26 03:56:00,
2013-01-25 23:01:00,13.3,-9.3,30.24,West,277,0.0,5.0,35,0.24,RA,RA,1.10,WeatherDisplay:10.34,2013-01-26 04:01:00,
2013-01-25 23:06:00,13.3,-9.3,30.24,West,277,0.0,0.0,35,0.24,RA,RA,1.10,WeatherDisplay:10.34,2013-01-26 04:06:00,
2013-01-25 23:11:00,13.3,-9.3,30.24,NNW,339,0.0,0.0,35,0.24,OVC,OVC,1.10,WeatherDisplay:10.34,2013-01-26 04:11:00,
2013-01-25 23:16:00,13.3,-9.3,30.24,NNW,338,0.0,0.0,35,0.24,OVC,OVC,1.10,WeatherDisplay:10.34,2013-01-26 04:16:00,
2013-01-25 23:21:00,13.3,-9.3,30.24,NNW,334,0.0,0.0,35,0.20,OVC,OVC,1.10,WeatherDisplay:10.34,2013-01-26 04:21:00,
2013-01-25 23:26:00,13.3,-9.3,30.24,NNW,333,0.0,0.0,35,0.16,OVC,OVC,1.10,WeatherDisplay:10.34,2013-01-26 04:26:00,
2013-01-25 23:31:00,13.1,-9.5,30.24,NNW,333,0.0,0.0,35,0.12,OVC,OVC,1.10,WeatherDisplay:10.34,2013-01-26 04:31:00,
2013-01-25 23:36:00,13.1,-9.5,30.24,NNW,333,0.0,0.0,35,0.04,OVC,OVC,1.10,WeatherDisplay:10.34,2013-01-26 04:36:00,
2013-01-25 23:41:00,13.1,-9.5,30.24,NNW,333,0.0,0.0,35,0.08,RA,RA,1.14,WeatherDisplay:10.34,2013-01-26 04:41:00,
2013-01-25 23:46:00,12.7,-9.8,30.24,NNW,333,0.0,0.0,35,0.08,RA,RA,1.14,WeatherDisplay:10.34,2013-01-26 04:46:00,
2013-01-25 23:51:00,12.9,-9.6,30.24,NNW,333,0.0,0.0,35,0.08,OVC,OVC,1.14,WeatherDisplay:10.34,2013-01-26 04:51:00,
2013-01-25 23:56:00,13.1,-9.5,30.24,NNW,333,0.0,0.0,35,0.08,OVC,OVC,1.14,WeatherDisplay:10.34,2013-01-26 04:56:00,